sensor_id;sensor_type;location;lat;lon;timestamp;temperature;humidity
16402;DHT22;8310;44.626;11.176;2022-08-21T00:00:34;25.70;52.30
16402;DHT22;8310;44.626;11.176;2022-08-21T00:03:06;25.70;52.40
16402;DHT22;8310;44.626;11.176;2022-08-21T00:05:38;25.70;52.40
16402;DHT22;8310;44.626;11.176;2022-08-21T00:08:06;25.70;53.10
16402;DHT22;8310;44.626;11.176;2022-08-21T00:10:35;25.70;52.50
16402;DHT22;8310;44.626;11.176;2022-08-21T00:13:03;25.70;52.50
16402;DHT22;8310;44.626;11.176;2022-08-21T00:15:33;25.70;52.50
16402;DHT22;8310;44.626;11.176;2022-08-21T00:18:00;25.60;52.50
16402;DHT22;8310;44.626;11.176;2022-08-21T00:20:28;25.60;52.50
16402;DHT22;8310;44.626;11.176;2022-08-21T00:22:57;25.60;52.50
16402;DHT22;8310;44.626;11.176;2022-08-21T00:25:25;25.60;52.50
16402;DHT22;8310;44.626;11.176;2022-08-21T00:27:54;25.50;52.40
16402;DHT22;8310;44.626;11.176;2022-08-21T00:30:23;25.50;52.40
16402;DHT22;8310;44.626;11.176;2022-08-21T00:32:52;25.40;52.40
16402;DHT22;8310;44.626;11.176;2022-08-21T00:35:23;25.40;52.40
16402;DHT22;8310;44.626;11.176;2022-08-21T00:37:50;25.40;52.50
16402;DHT22;8310;44.626;11.176;2022-08-21T00:40:31;25.30;52.50
16402;DHT22;8310;44.626;11.176;2022-08-21T00:43:00;25.30;52.50
16402;DHT22;8310;44.626;11.176;2022-08-21T00:45:27;25.30;52.50
16402;DHT22;8310;44.626;11.176;2022-08-21T00:47:56;25.20;52.50
16402;DHT22;8310;44.626;11.176;2022-08-21T00:50:26;25.20;52.40
16402;DHT22;8310;44.626;11.176;2022-08-21T00:52:56;25.10;52.30
16402;DHT22;8310;44.626;11.176;2022-08-21T00:55:26;25.00;52.30
16402;DHT22;8310;44.626;11.176;2022-08-21T00:57:57;25.00;52.40
16402;DHT22;8310;44.626;11.176;2022-08-21T01:00:28;25.00;52.40
16402;DHT22;8310;44.626;11.176;2022-08-21T01:02:57;24.90;52.30
16402;DHT22;8310;44.626;11.176;2022-08-21T01:05:25;24.80;52.30
16402;DHT22;8310;44.626;11.176;2022-08-21T01:07:52;24.80;52.30
16402;DHT22;8310;44.626;11.176;2022-08-21T01:10:22;24.70;52.20
16402;DHT22;8310;44.626;11.176;2022-08-21T01:12:52;24.60;52.20
16402;DHT22;8310;44.626;11.176;2022-08-21T01:15:22;24.50;52.30
16402;DHT22;8310;44.626;11.176;2022-08-21T01:17:50;24.40;52.30
16402;DHT22;8310;44.626;11.176;2022-08-21T01:20:22;24.30;52.30
16402;DHT22;8310;44.626;11.176;2022-08-21T01:22:52;24.30;52.40
16402;DHT22;8310;44.626;11.176;2022-08-21T01:25:20;24.30;52.40
16402;DHT22;8310;44.626;11.176;2022-08-21T01:27:48;24.20;52.40
16402;DHT22;8310;44.626;11.176;2022-08-21T01:30:19;24.20;52.30
16402;DHT22;8310;44.626;11.176;2022-08-21T01:32:47;24.10;52.30
16402;DHT22;8310;44.626;11.176;2022-08-21T01:35:17;24.00;52.20
16402;DHT22;8310;44.626;11.176;2022-08-21T01:37:47;23.90;52.30
16402;DHT22;8310;44.626;11.176;2022-08-21T01:40:17;23.90;52.30
16402;DHT22;8310;44.626;11.176;2022-08-21T01:42:45;23.90;52.50
16402;DHT22;8310;44.626;11.176;2022-08-21T01:45:13;23.90;52.60
16402;DHT22;8310;44.626;11.176;2022-08-21T01:47:41;24.00;52.70
16402;DHT22;8310;44.626;11.176;2022-08-21T01:50:11;23.90;52.60
16402;DHT22;8310;44.626;11.176;2022-08-21T01:52:40;23.90;52.70
16402;DHT22;8310;44.626;11.176;2022-08-21T01:55:10;24.00;52.70
16402;DHT22;8310;44.626;11.176;2022-08-21T01:57:40;23.90;52.70
16402;DHT22;8310;44.626;11.176;2022-08-21T02:00:10;23.90;52.60
16402;DHT22;8310;44.626;11.176;2022-08-21T02:02:38;23.90;52.60
16402;DHT22;8310;44.626;11.176;2022-08-21T02:05:06;23.90;52.60
16402;DHT22;8310;44.626;11.176;2022-08-21T02:07:38;23.80;52.60
16402;DHT22;8310;44.626;11.176;2022-08-21T02:10:07;23.80;52.70
16402;DHT22;8310;44.626;11.176;2022-08-21T02:12:34;23.90;53.50
16402;DHT22;8310;44.626;11.176;2022-08-21T02:15:05;23.80;52.80
16402;DHT22;8310;44.626;11.176;2022-08-21T02:17:41;23.80;52.80
16402;DHT22;8310;44.626;11.176;2022-08-21T02:20:10;23.80;52.70
16402;DHT22;8310;44.626;11.176;2022-08-21T02:22:37;23.70;52.70
16402;DHT22;8310;44.626;11.176;2022-08-21T02:25:05;23.70;52.80
16402;DHT22;8310;44.626;11.176;2022-08-21T02:27:38;23.60;52.80
16402;DHT22;8310;44.626;11.176;2022-08-21T02:30:11;23.60;52.90
16402;DHT22;8310;44.626;11.176;2022-08-21T02:32:40;23.60;52.90
16402;DHT22;8310;44.626;11.176;2022-08-21T02:35:08;23.50;52.90
16402;DHT22;8310;44.626;11.176;2022-08-21T02:37:43;23.60;53.10
16402;DHT22;8310;44.626;11.176;2022-08-21T02:40:11;23.60;53.10
16402;DHT22;8310;44.626;11.176;2022-08-21T02:42:39;23.60;53.10
16402;DHT22;8310;44.626;11.176;2022-08-21T02:45:09;23.60;53.10
16402;DHT22;8310;44.626;11.176;2022-08-21T02:47:37;23.60;53.10
16402;DHT22;8310;44.626;11.176;2022-08-21T02:50:06;23.60;53.10
16402;DHT22;8310;44.626;11.176;2022-08-21T02:52:33;23.60;53.00
16402;DHT22;8310;44.626;11.176;2022-08-21T02:55:00;23.60;53.00
16402;DHT22;8310;44.626;11.176;2022-08-21T02:57:28;23.60;52.90
16402;DHT22;8310;44.626;11.176;2022-08-21T02:59:57;23.50;52.90
16402;DHT22;8310;44.626;11.176;2022-08-21T03:02:26;23.50;53.00
16402;DHT22;8310;44.626;11.176;2022-08-21T03:04:54;23.50;53.10
16402;DHT22;8310;44.626;11.176;2022-08-21T03:07:21;23.40;53.10
16402;DHT22;8310;44.626;11.176;2022-08-21T03:09:49;23.40;53.10
16402;DHT22;8310;44.626;11.176;2022-08-21T03:12:16;23.40;53.10
16402;DHT22;8310;44.626;11.176;2022-08-21T03:14:44;23.30;53.00
16402;DHT22;8310;44.626;11.176;2022-08-21T03:17:11;23.30;53.00
16402;DHT22;8310;44.626;11.176;2022-08-21T03:19:40;23.20;53.00
16402;DHT22;8310;44.626;11.176;2022-08-21T03:22:09;23.20;53.10
16402;DHT22;8310;44.626;11.176;2022-08-21T03:24:37;23.20;53.20
16402;DHT22;8310;44.626;11.176;2022-08-21T03:27:05;23.20;53.20
16402;DHT22;8310;44.626;11.176;2022-08-21T03:29:32;23.10;53.20
16402;DHT22;8310;44.626;11.176;2022-08-21T03:31:59;23.10;53.20
16402;DHT22;8310;44.626;11.176;2022-08-21T03:34:26;23.00;53.20
16402;DHT22;8310;44.626;11.176;2022-08-21T03:36:55;23.00;53.20
16402;DHT22;8310;44.626;11.176;2022-08-21T03:39:23;23.00;53.30
16402;DHT22;8310;44.626;11.176;2022-08-21T03:41:51;23.10;53.40
16402;DHT22;8310;44.626;11.176;2022-08-21T03:44:19;23.10;53.40
16402;DHT22;8310;44.626;11.176;2022-08-21T03:46:47;23.00;53.30
16402;DHT22;8310;44.626;11.176;2022-08-21T03:49:14;23.00;53.30
16402;DHT22;8310;44.626;11.176;2022-08-21T03:51:42;22.90;53.20
16402;DHT22;8310;44.626;11.176;2022-08-21T03:54:11;22.90;53.30
16402;DHT22;8310;44.626;11.176;2022-08-21T03:56:38;22.90;53.40
16402;DHT22;8310;44.626;11.176;2022-08-21T03:59:06;22.90;53.40
16402;DHT22;8310;44.626;11.176;2022-08-21T04:01:34;22.90;53.40
16402;DHT22;8310;44.626;11.176;2022-08-21T04:04:02;22.90;53.50
16402;DHT22;8310;44.626;11.176;2022-08-21T04:06:32;22.90;53.60
16402;DHT22;8310;44.626;11.176;2022-08-21T04:08:59;23.00;53.60
16402;DHT22;8310;44.626;11.176;2022-08-21T04:11:28;23.00;53.60
16402;DHT22;8310;44.626;11.176;2022-08-21T04:13:56;22.90;53.40
16402;DHT22;8310;44.626;11.176;2022-08-21T04:16:23;22.90;53.40
16402;DHT22;8310;44.626;11.176;2022-08-21T04:18:51;22.90;53.40
16402;DHT22;8310;44.626;11.176;2022-08-21T04:21:18;22.90;53.40
16402;DHT22;8310;44.626;11.176;2022-08-21T04:23:46;22.80;53.50
16402;DHT22;8310;44.626;11.176;2022-08-21T04:26:13;22.80;53.50
16402;DHT22;8310;44.626;11.176;2022-08-21T04:28:42;22.80;53.60
16402;DHT22;8310;44.626;11.176;2022-08-21T04:31:09;22.80;53.60
16402;DHT22;8310;44.626;11.176;2022-08-21T04:33:37;22.80;53.60
16402;DHT22;8310;44.626;11.176;2022-08-21T04:36:05;22.80;53.70
16402;DHT22;8310;44.626;11.176;2022-08-21T04:38:34;22.90;53.80
16402;DHT22;8310;44.626;11.176;2022-08-21T04:41:01;22.90;53.80
16402;DHT22;8310;44.626;11.176;2022-08-21T04:43:29;22.90;53.80
16402;DHT22;8310;44.626;11.176;2022-08-21T04:46:01;22.90;53.90
16402;DHT22;8310;44.626;11.176;2022-08-21T04:48:28;22.90;54.00
16402;DHT22;8310;44.626;11.176;2022-08-21T04:50:59;22.90;54.00
16402;DHT22;8310;44.626;11.176;2022-08-21T04:53:35;22.90;54.00
16402;DHT22;8310;44.626;11.176;2022-08-21T04:56:06;22.90;54.00
16402;DHT22;8310;44.626;11.176;2022-08-21T04:58:37;23.00;54.00
16402;DHT22;8310;44.626;11.176;2022-08-21T05:01:13;23.00;54.00
16402;DHT22;8310;44.626;11.176;2022-08-21T05:03:42;23.00;54.00
16402;DHT22;8310;44.626;11.176;2022-08-21T05:06:12;22.90;53.90
16402;DHT22;8310;44.626;11.176;2022-08-21T05:08:41;22.90;54.00
16402;DHT22;8310;44.626;11.176;2022-08-21T05:11:11;23.00;54.20
16402;DHT22;8310;44.626;11.176;2022-08-21T05:13:39;23.00;54.20
16402;DHT22;8310;44.626;11.176;2022-08-21T05:16:09;22.90;54.10
16402;DHT22;8310;44.626;11.176;2022-08-21T05:18:36;23.00;54.10
16402;DHT22;8310;44.626;11.176;2022-08-21T05:21:04;23.00;54.20
16402;DHT22;8310;44.626;11.176;2022-08-21T05:23:32;23.00;54.30
16402;DHT22;8310;44.626;11.176;2022-08-21T05:25:59;23.00;54.30
16402;DHT22;8310;44.626;11.176;2022-08-21T05:28:27;23.00;54.40
16402;DHT22;8310;44.626;11.176;2022-08-21T05:30:54;23.10;54.50
16402;DHT22;8310;44.626;11.176;2022-08-21T05:33:33;23.20;54.60
16402;DHT22;8310;44.626;11.176;2022-08-21T05:36:00;23.20;54.60
16402;DHT22;8310;44.626;11.176;2022-08-21T05:38:28;23.30;54.70
16402;DHT22;8310;44.626;11.176;2022-08-21T05:40:55;23.30;54.70
16402;DHT22;8310;44.626;11.176;2022-08-21T05:43:23;23.40;54.80
16402;DHT22;8310;44.626;11.176;2022-08-21T05:46:08;23.40;54.80
16402;DHT22;8310;44.626;11.176;2022-08-21T05:48:36;23.50;54.90
16402;DHT22;8310;44.626;11.176;2022-08-21T05:51:10;23.50;55.00
16402;DHT22;8310;44.626;11.176;2022-08-21T05:53:38;23.60;55.10
16402;DHT22;8310;44.626;11.176;2022-08-21T05:56:08;23.60;54.90
16402;DHT22;8310;44.626;11.176;2022-08-21T05:58:35;23.60;54.80
16402;DHT22;8310;44.626;11.176;2022-08-21T06:01:03;23.60;54.90
16402;DHT22;8310;44.626;11.176;2022-08-21T06:03:36;23.60;54.90
16402;DHT22;8310;44.626;11.176;2022-08-21T06:06:04;23.60;54.90
16402;DHT22;8310;44.626;11.176;2022-08-21T06:08:33;23.70;55.00
16402;DHT22;8310;44.626;11.176;2022-08-21T06:11:02;23.70;55.00
16402;DHT22;8310;44.626;11.176;2022-08-21T06:13:30;23.70;55.00
16402;DHT22;8310;44.626;11.176;2022-08-21T06:16:02;23.70;55.00
16402;DHT22;8310;44.626;11.176;2022-08-21T06:18:37;23.90;55.20
16402;DHT22;8310;44.626;11.176;2022-08-21T06:21:05;23.90;55.30
16402;DHT22;8310;44.626;11.176;2022-08-21T06:23:34;24.00;55.30
16402;DHT22;8310;44.626;11.176;2022-08-21T06:26:02;24.10;55.40
16402;DHT22;8310;44.626;11.176;2022-08-21T06:28:30;24.20;55.60
16402;DHT22;8310;44.626;11.176;2022-08-21T06:30:58;24.30;55.70
16402;DHT22;8310;44.626;11.176;2022-08-21T06:33:25;24.30;55.70
16402;DHT22;8310;44.626;11.176;2022-08-21T06:35:57;24.40;55.80
16402;DHT22;8310;44.626;11.176;2022-08-21T06:38:25;24.50;55.90
16402;DHT22;8310;44.626;11.176;2022-08-21T06:40:53;24.60;56.00
16402;DHT22;8310;44.626;11.176;2022-08-21T06:43:20;24.80;56.10
16402;DHT22;8310;44.626;11.176;2022-08-21T06:45:47;24.90;56.20
16402;DHT22;8310;44.626;11.176;2022-08-21T06:48:14;25.00;56.30
16402;DHT22;8310;44.626;11.176;2022-08-21T06:50:42;25.10;56.30
16402;DHT22;8310;44.626;11.176;2022-08-21T06:53:13;25.20;56.40
16402;DHT22;8310;44.626;11.176;2022-08-21T06:55:41;25.30;56.50
16402;DHT22;8310;44.626;11.176;2022-08-21T06:58:10;25.40;56.60
16402;DHT22;8310;44.626;11.176;2022-08-21T07:00:44;25.50;56.60
16402;DHT22;8310;44.626;11.176;2022-08-21T07:03:23;25.70;56.70
16402;DHT22;8310;44.626;11.176;2022-08-21T07:05:51;25.80;56.90
16402;DHT22;8310;44.626;11.176;2022-08-21T07:08:21;25.90;56.90
16402;DHT22;8310;44.626;11.176;2022-08-21T07:10:49;26.10;57.00
16402;DHT22;8310;44.626;11.176;2022-08-21T07:13:16;26.20;57.10
16402;DHT22;8310;44.626;11.176;2022-08-21T07:15:44;26.20;57.10
16402;DHT22;8310;44.626;11.176;2022-08-21T07:18:12;26.40;57.10
16402;DHT22;8310;44.626;11.176;2022-08-21T07:20:41;26.50;57.30
16402;DHT22;8310;44.626;11.176;2022-08-21T07:23:16;26.60;57.30
16402;DHT22;8310;44.626;11.176;2022-08-21T07:25:47;26.70;57.30
16402;DHT22;8310;44.626;11.176;2022-08-21T07:28:16;26.80;57.30
16402;DHT22;8310;44.626;11.176;2022-08-21T07:30:43;27.00;57.40
16402;DHT22;8310;44.626;11.176;2022-08-21T07:33:11;27.10;57.50
16402;DHT22;8310;44.626;11.176;2022-08-21T07:35:40;27.20;57.50
16402;DHT22;8310;44.626;11.176;2022-08-21T07:38:07;27.20;57.40
16402;DHT22;8310;44.626;11.176;2022-08-21T07:40:35;27.40;57.50
16402;DHT22;8310;44.626;11.176;2022-08-21T07:43:05;27.50;57.50
16402;DHT22;8310;44.626;11.176;2022-08-21T07:45:33;27.60;57.50
16402;DHT22;8310;44.626;11.176;2022-08-21T07:48:00;27.70;57.50
16402;DHT22;8310;44.626;11.176;2022-08-21T07:50:28;27.80;57.50
16402;DHT22;8310;44.626;11.176;2022-08-21T07:52:55;27.90;57.40
16402;DHT22;8310;44.626;11.176;2022-08-21T07:55:23;28.00;57.50
16402;DHT22;8310;44.626;11.176;2022-08-21T07:57:50;28.10;57.50
16402;DHT22;8310;44.626;11.176;2022-08-21T08:00:21;28.20;57.50
16402;DHT22;8310;44.626;11.176;2022-08-21T08:02:56;28.30;57.60
16402;DHT22;8310;44.626;11.176;2022-08-21T08:05:27;28.40;57.50
16402;DHT22;8310;44.626;11.176;2022-08-21T08:07:56;28.50;57.60
16402;DHT22;8310;44.626;11.176;2022-08-21T08:10:24;28.60;57.60
16402;DHT22;8310;44.626;11.176;2022-08-21T08:12:58;28.70;57.60
16402;DHT22;8310;44.626;11.176;2022-08-21T08:15:29;28.80;57.70
16402;DHT22;8310;44.626;11.176;2022-08-21T08:17:58;29.00;57.90
16402;DHT22;8310;44.626;11.176;2022-08-21T08:20:26;29.10;57.90
16402;DHT22;8310;44.626;11.176;2022-08-21T08:22:54;29.10;57.80
16402;DHT22;8310;44.626;11.176;2022-08-21T08:25:27;29.20;57.90
16402;DHT22;8310;44.626;11.176;2022-08-21T08:27:55;29.30;57.90
16402;DHT22;8310;44.626;11.176;2022-08-21T08:30:23;29.40;57.80
16402;DHT22;8310;44.626;11.176;2022-08-21T08:32:52;29.50;57.80
16402;DHT22;8310;44.626;11.176;2022-08-21T08:35:19;29.60;57.90
16402;DHT22;8310;44.626;11.176;2022-08-21T08:37:46;29.70;57.90
16402;DHT22;8310;44.626;11.176;2022-08-21T08:40:19;29.80;57.90
16402;DHT22;8310;44.626;11.176;2022-08-21T08:42:49;29.90;58.00
16402;DHT22;8310;44.626;11.176;2022-08-21T08:45:19;30.00;58.00
16402;DHT22;8310;44.626;11.176;2022-08-21T08:47:53;30.10;57.90
16402;DHT22;8310;44.626;11.176;2022-08-21T08:50:26;30.20;57.90
16402;DHT22;8310;44.626;11.176;2022-08-21T08:53:02;30.20;57.80
16402;DHT22;8310;44.626;11.176;2022-08-21T08:55:34;30.30;57.80
16402;DHT22;8310;44.626;11.176;2022-08-21T08:58:33;30.40;57.80
16402;DHT22;8310;44.626;11.176;2022-08-21T09:01:06;30.50;57.80
16402;DHT22;8310;44.626;11.176;2022-08-21T09:03:39;30.50;57.70
16402;DHT22;8310;44.626;11.176;2022-08-21T09:06:16;30.60;57.70
16402;DHT22;8310;44.626;11.176;2022-08-21T09:08:53;30.70;57.80
16402;DHT22;8310;44.626;11.176;2022-08-21T09:11:32;30.80;57.80
16402;DHT22;8310;44.626;11.176;2022-08-21T09:14:08;30.90;57.80
16402;DHT22;8310;44.626;11.176;2022-08-21T09:16:50;31.00;57.80
16402;DHT22;8310;44.626;11.176;2022-08-21T09:19:36;31.10;57.80
16402;DHT22;8310;44.626;11.176;2022-08-21T09:22:13;31.20;57.80
16402;DHT22;8310;44.626;11.176;2022-08-21T09:24:52;31.20;57.80
16402;DHT22;8310;44.626;11.176;2022-08-21T09:27:24;31.40;57.90
16402;DHT22;8310;44.626;11.176;2022-08-21T09:29:53;31.50;57.90
16402;DHT22;8310;44.626;11.176;2022-08-21T09:32:25;31.60;58.00
16402;DHT22;8310;44.626;11.176;2022-08-21T09:35:00;31.70;58.00
16402;DHT22;8310;44.626;11.176;2022-08-21T09:37:29;31.80;57.90
16402;DHT22;8310;44.626;11.176;2022-08-21T09:39:58;31.80;57.90
16402;DHT22;8310;44.626;11.176;2022-08-21T09:42:31;32.00;58.00
16402;DHT22;8310;44.626;11.176;2022-08-21T09:45:10;32.10;58.00
16402;DHT22;8310;44.626;11.176;2022-08-21T09:47:38;32.20;57.80
16402;DHT22;8310;44.626;11.176;2022-08-21T09:50:17;32.20;57.70
16402;DHT22;8310;44.626;11.176;2022-08-21T09:52:48;32.30;57.80
16402;DHT22;8310;44.626;11.176;2022-08-21T09:55:20;32.40;57.80
16402;DHT22;8310;44.626;11.176;2022-08-21T09:58:06;32.50;57.90
16402;DHT22;8310;44.626;11.176;2022-08-21T10:00:35;32.60;57.80
16402;DHT22;8310;44.626;11.176;2022-08-21T10:03:11;32.70;57.80
16402;DHT22;8310;44.626;11.176;2022-08-21T10:05:51;32.80;57.80
16402;DHT22;8310;44.626;11.176;2022-08-21T10:08:22;32.90;57.80
16402;DHT22;8310;44.626;11.176;2022-08-21T10:10:53;33.00;57.80
16402;DHT22;8310;44.626;11.176;2022-08-21T10:13:26;33.10;57.60
16402;DHT22;8310;44.626;11.176;2022-08-21T10:16:05;33.20;57.50
16402;DHT22;8310;44.626;11.176;2022-08-21T10:18:39;33.20;57.50
16402;DHT22;8310;44.626;11.176;2022-08-21T10:21:15;33.20;57.50
16402;DHT22;8310;44.626;11.176;2022-08-21T10:23:51;33.30;57.50
16402;DHT22;8310;44.626;11.176;2022-08-21T10:26:37;33.30;57.50
16402;DHT22;8310;44.626;11.176;2022-08-21T10:29:14;33.40;57.50
16402;DHT22;8310;44.626;11.176;2022-08-21T10:31:50;33.40;57.50
16402;DHT22;8310;44.626;11.176;2022-08-21T10:34:31;33.50;57.60
16402;DHT22;8310;44.626;11.176;2022-08-21T10:37:14;33.60;57.60
16402;DHT22;8310;44.626;11.176;2022-08-21T10:39:53;33.70;57.60
16402;DHT22;8310;44.626;11.176;2022-08-21T10:42:30;33.90;57.60
16402;DHT22;8310;44.626;11.176;2022-08-21T10:45:08;34.00;57.60
16402;DHT22;8310;44.626;11.176;2022-08-21T10:47:42;34.10;57.30
16402;DHT22;8310;44.626;11.176;2022-08-21T10:50:19;34.10;57.30
16402;DHT22;8310;44.626;11.176;2022-08-21T10:53:13;34.20;57.30
16402;DHT22;8310;44.626;11.176;2022-08-21T10:55:51;34.20;57.20
16402;DHT22;8310;44.626;11.176;2022-08-21T10:58:25;34.20;57.20
16402;DHT22;8310;44.626;11.176;2022-08-21T11:00:58;34.20;56.60
16402;DHT22;8310;44.626;11.176;2022-08-21T11:03:31;34.20;56.60
16402;DHT22;8310;44.626;11.176;2022-08-21T11:06:05;34.10;56.50
16402;DHT22;8310;44.626;11.176;2022-08-21T11:08:41;34.10;56.50
16402;DHT22;8310;44.626;11.176;2022-08-21T11:11:13;34.10;56.70
16402;DHT22;8310;44.626;11.176;2022-08-21T11:13:45;34.20;56.90
16402;DHT22;8310;44.626;11.176;2022-08-21T11:16:20;34.30;57.00
16402;DHT22;8310;44.626;11.176;2022-08-21T11:18:55;34.50;57.10
16402;DHT22;8310;44.626;11.176;2022-08-21T11:21:33;34.60;56.80
16402;DHT22;8310;44.626;11.176;2022-08-21T11:24:23;34.50;56.20
16402;DHT22;8310;44.626;11.176;2022-08-21T11:26:59;34.50;56.20
16402;DHT22;8310;44.626;11.176;2022-08-21T11:29:31;34.50;56.50
16402;DHT22;8310;44.626;11.176;2022-08-21T11:32:12;34.60;56.60
16402;DHT22;8310;44.626;11.176;2022-08-21T11:34:54;34.70;56.80
16402;DHT22;8310;44.626;11.176;2022-08-21T11:37:38;34.80;56.70
16402;DHT22;8310;44.626;11.176;2022-08-21T11:40:22;34.90;56.50
16402;DHT22;8310;44.626;11.176;2022-08-21T11:42:58;35.00;56.20
16402;DHT22;8310;44.626;11.176;2022-08-21T11:45:33;34.90;55.80
16402;DHT22;8310;44.626;11.176;2022-08-21T11:48:09;34.80;55.50
16402;DHT22;8310;44.626;11.176;2022-08-21T11:50:42;34.70;55.90
16402;DHT22;8310;44.626;11.176;2022-08-21T11:53:13;34.70;55.90
16402;DHT22;8310;44.626;11.176;2022-08-21T11:55:47;34.80;56.10
16402;DHT22;8310;44.626;11.176;2022-08-21T11:58:20;34.90;56.20
16402;DHT22;8310;44.626;11.176;2022-08-21T12:00:51;35.00;56.40
16402;DHT22;8310;44.626;11.176;2022-08-21T12:03:24;35.10;56.50
16402;DHT22;8310;44.626;11.176;2022-08-21T12:05:55;35.30;56.50
16402;DHT22;8310;44.626;11.176;2022-08-21T12:08:30;35.40;56.60
16402;DHT22;8310;44.626;11.176;2022-08-21T12:11:05;35.60;56.60
16402;DHT22;8310;44.626;11.176;2022-08-21T12:13:36;35.70;56.60
16402;DHT22;8310;44.626;11.176;2022-08-21T12:16:09;35.80;56.50
16402;DHT22;8310;44.626;11.176;2022-08-21T12:18:37;36.00;56.70
16402;DHT22;8310;44.626;11.176;2022-08-21T12:21:20;36.00;56.00
16402;DHT22;8310;44.626;11.176;2022-08-21T12:23:59;36.00;55.80
16402;DHT22;8310;44.626;11.176;2022-08-21T12:26:33;36.00;56.00
16402;DHT22;8310;44.626;11.176;2022-08-21T12:29:22;36.00;56.10
16402;DHT22;8310;44.626;11.176;2022-08-21T12:31:54;36.10;55.80
16402;DHT22;8310;44.626;11.176;2022-08-21T12:34:25;36.00;55.60
16402;DHT22;8310;44.626;11.176;2022-08-21T12:37:05;36.00;55.60
16402;DHT22;8310;44.626;11.176;2022-08-21T12:39:36;36.00;55.60
16402;DHT22;8310;44.626;11.176;2022-08-21T12:42:23;36.00;55.70
16402;DHT22;8310;44.626;11.176;2022-08-21T12:44:55;36.00;55.40
16402;DHT22;8310;44.626;11.176;2022-08-21T12:47:29;36.00;55.40
16402;DHT22;8310;44.626;11.176;2022-08-21T12:50:03;36.00;55.50
16402;DHT22;8310;44.626;11.176;2022-08-21T12:52:35;36.10;55.50
16402;DHT22;8310;44.626;11.176;2022-08-21T12:55:05;36.10;55.50
16402;DHT22;8310;44.626;11.176;2022-08-21T12:57:40;36.20;55.30
16402;DHT22;8310;44.626;11.176;2022-08-21T13:00:10;36.10;54.80
16402;DHT22;8310;44.626;11.176;2022-08-21T13:02:49;35.90;54.20
16402;DHT22;8310;44.626;11.176;2022-08-21T13:05:25;35.80;54.50
16402;DHT22;8310;44.626;11.176;2022-08-21T13:07:54;35.80;54.90
16402;DHT22;8310;44.626;11.176;2022-08-21T13:10:24;35.80;55.10
16402;DHT22;8310;44.626;11.176;2022-08-21T13:12:56;35.90;55.30
16402;DHT22;8310;44.626;11.176;2022-08-21T13:15:26;36.10;55.40
16402;DHT22;8310;44.626;11.176;2022-08-21T13:17:54;36.20;55.30
16402;DHT22;8310;44.626;11.176;2022-08-21T13:20:30;36.30;55.20
16402;DHT22;8310;44.626;11.176;2022-08-21T13:22:59;36.30;55.00
16402;DHT22;8310;44.626;11.176;2022-08-21T13:25:29;36.30;55.00
16402;DHT22;8310;44.626;11.176;2022-08-21T13:28:03;36.40;55.00
16402;DHT22;8310;44.626;11.176;2022-08-21T13:30:31;36.40;54.90
16402;DHT22;8310;44.626;11.176;2022-08-21T13:33:01;36.50;55.00
16402;DHT22;8310;44.626;11.176;2022-08-21T13:35:36;36.60;55.10
16402;DHT22;8310;44.626;11.176;2022-08-21T13:38:04;36.60;55.00
16402;DHT22;8310;44.626;11.176;2022-08-21T13:40:44;36.70;54.90
16402;DHT22;8310;44.626;11.176;2022-08-21T13:43:16;36.80;54.70
16402;DHT22;8310;44.626;11.176;2022-08-21T13:45:52;36.80;54.40
16402;DHT22;8310;44.626;11.176;2022-08-21T13:48:20;36.70;53.90
16402;DHT22;8310;44.626;11.176;2022-08-21T13:50:49;36.50;53.70
16402;DHT22;8310;44.626;11.176;2022-08-21T13:53:22;36.40;54.00
16402;DHT22;8310;44.626;11.176;2022-08-21T13:55:51;36.40;54.10
16402;DHT22;8310;44.626;11.176;2022-08-21T13:58:28;36.50;54.20
16402;DHT22;8310;44.626;11.176;2022-08-21T14:00:58;36.50;53.80
16402;DHT22;8310;44.626;11.176;2022-08-21T14:03:31;36.40;53.60
16402;DHT22;8310;44.626;11.176;2022-08-21T14:05:59;36.40;53.90
16402;DHT22;8310;44.626;11.176;2022-08-21T14:08:31;36.40;54.30
16402;DHT22;8310;44.626;11.176;2022-08-21T14:11:02;36.40;53.80
16402;DHT22;8310;44.626;11.176;2022-08-21T14:13:36;36.40;53.70
16402;DHT22;8310;44.626;11.176;2022-08-21T14:16:13;36.50;54.60
16402;DHT22;8310;44.626;11.176;2022-08-21T14:18:51;36.60;54.00
16402;DHT22;8310;44.626;11.176;2022-08-21T14:21:29;36.70;54.10
16402;DHT22;8310;44.626;11.176;2022-08-21T14:24:07;36.80;54.10
16402;DHT22;8310;44.626;11.176;2022-08-21T14:26:45;36.80;53.80
16402;DHT22;8310;44.626;11.176;2022-08-21T14:29:16;36.80;53.70
16402;DHT22;8310;44.626;11.176;2022-08-21T14:31:50;36.80;53.70
16402;DHT22;8310;44.626;11.176;2022-08-21T14:34:17;36.80;53.70
16402;DHT22;8310;44.626;11.176;2022-08-21T14:36:46;36.90;54.30
16402;DHT22;8310;44.626;11.176;2022-08-21T14:39:14;36.90;53.70
16402;DHT22;8310;44.626;11.176;2022-08-21T14:41:41;37.00;53.70
16402;DHT22;8310;44.626;11.176;2022-08-21T14:44:12;37.00;53.70
16402;DHT22;8310;44.626;11.176;2022-08-21T14:46:41;37.10;53.70
16402;DHT22;8310;44.626;11.176;2022-08-21T14:49:09;37.10;53.60
16402;DHT22;8310;44.626;11.176;2022-08-21T14:51:36;37.20;53.30
16402;DHT22;8310;44.626;11.176;2022-08-21T14:54:04;37.10;52.60
16402;DHT22;8310;44.626;11.176;2022-08-21T14:56:33;36.80;51.90
16402;DHT22;8310;44.626;11.176;2022-08-21T14:59:04;36.50;51.60
16402;DHT22;8310;44.626;11.176;2022-08-21T15:01:35;36.20;51.50
16402;DHT22;8310;44.626;11.176;2022-08-21T15:04:05;36.00;51.70
16402;DHT22;8310;44.626;11.176;2022-08-21T15:06:33;35.90;52.10
16402;DHT22;8310;44.626;11.176;2022-08-21T15:09:06;35.90;52.40
16402;DHT22;8310;44.626;11.176;2022-08-21T15:11:37;35.90;52.30
16402;DHT22;8310;44.626;11.176;2022-08-21T15:14:08;35.90;52.40
16402;DHT22;8310;44.626;11.176;2022-08-21T15:16:37;35.90;52.70
16402;DHT22;8310;44.626;11.176;2022-08-21T15:19:07;36.00;52.80
16402;DHT22;8310;44.626;11.176;2022-08-21T15:21:34;36.20;52.90
16402;DHT22;8310;44.626;11.176;2022-08-21T15:24:02;36.30;52.90
16402;DHT22;8310;44.626;11.176;2022-08-21T15:26:31;36.40;52.90
16402;DHT22;8310;44.626;11.176;2022-08-21T15:28:59;36.40;52.60
16402;DHT22;8310;44.626;11.176;2022-08-21T15:31:27;36.50;52.70
16402;DHT22;8310;44.626;11.176;2022-08-21T15:33:55;36.60;52.70
16402;DHT22;8310;44.626;11.176;2022-08-21T15:36:24;36.60;52.60
16402;DHT22;8310;44.626;11.176;2022-08-21T15:38:51;36.60;52.60
16402;DHT22;8310;44.626;11.176;2022-08-21T15:41:20;36.60;52.50
16402;DHT22;8310;44.626;11.176;2022-08-21T15:43:51;36.60;52.30
16402;DHT22;8310;44.626;11.176;2022-08-21T15:46:19;36.60;51.90
16402;DHT22;8310;44.626;11.176;2022-08-21T15:48:47;36.40;51.50
16402;DHT22;8310;44.626;11.176;2022-08-21T15:51:16;36.30;51.70
16402;DHT22;8310;44.626;11.176;2022-08-21T15:53:45;36.20;51.80